sensor_id;sensor_type;location;lat;lon;timestamp;temperature;humidity
336;DHT22;156;48.738;9.228;2022-10-14T00:02:13;13.30;99.90
336;DHT22;156;48.738;9.228;2022-10-14T00:05:18;13.40;99.90
336;DHT22;156;48.738;9.228;2022-10-14T00:08:13;13.20;99.90
336;DHT22;156;48.738;9.228;2022-10-14T00:10:49;13.20;99.90
336;DHT22;156;48.738;9.228;2022-10-14T00:13:26;13.20;99.90
336;DHT22;156;48.738;9.228;2022-10-14T00:16:02;12.80;99.90
336;DHT22;156;48.738;9.228;2022-10-14T00:18:59;12.40;99.90
336;DHT22;156;48.738;9.228;2022-10-14T00:25:14;13.30;99.90
336;DHT22;156;48.738;9.228;2022-10-14T00:31:06;13.30;99.90
336;DHT22;156;48.738;9.228;2022-10-14T00:34:03;13.50;99.90
336;DHT22;156;48.738;9.228;2022-10-14T00:37:00;13.50;99.90
336;DHT22;156;48.738;9.228;2022-10-14T00:39:39;13.20;99.90
336;DHT22;156;48.738;9.228;2022-10-14T00:42:48;14.00;99.90
336;DHT22;156;48.738;9.228;2022-10-14T00:45:36;13.80;99.90
336;DHT22;156;48.738;9.228;2022-10-14T00:48:32;13.70;99.90
336;DHT22;156;48.738;9.228;2022-10-14T00:51:11;12.70;99.90
336;DHT22;156;48.738;9.228;2022-10-14T00:53:52;13.20;99.90
336;DHT22;156;48.738;9.228;2022-10-14T00:56:35;13.10;99.90
336;DHT22;156;48.738;9.228;2022-10-14T00:59:31;13.10;99.90
336;DHT22;156;48.738;9.228;2022-10-14T01:02:13;13.00;99.90
336;DHT22;156;48.738;9.228;2022-10-14T01:04:48;12.80;99.90
336;DHT22;156;48.738;9.228;2022-10-14T01:07:36;13.30;99.90
336;DHT22;156;48.738;9.228;2022-10-14T01:13:31;12.80;99.90
336;DHT22;156;48.738;9.228;2022-10-14T01:16:20;12.90;99.90
336;DHT22;156;48.738;9.228;2022-10-14T01:19:36;13.30;99.90
336;DHT22;156;48.738;9.228;2022-10-14T01:22:35;13.10;99.90
336;DHT22;156;48.738;9.228;2022-10-14T01:25:40;13.20;99.90
336;DHT22;156;48.738;9.228;2022-10-14T01:28:35;13.30;99.90
336;DHT22;156;48.738;9.228;2022-10-14T01:31:52;13.20;99.90
336;DHT22;156;48.738;9.228;2022-10-14T01:34:41;14.80;99.90
336;DHT22;156;48.738;9.228;2022-10-14T01:37:37;13.10;99.90
336;DHT22;156;48.738;9.228;2022-10-14T01:40:34;14.10;99.90
336;DHT22;156;48.738;9.228;2022-10-14T01:43:11;12.80;99.90
336;DHT22;156;48.738;9.228;2022-10-14T01:46:01;12.80;99.90
336;DHT22;156;48.738;9.228;2022-10-14T01:48:40;12.90;99.90
336;DHT22;156;48.738;9.228;2022-10-14T01:51:34;13.10;99.90
336;DHT22;156;48.738;9.228;2022-10-14T01:54:28;12.90;99.90
336;DHT22;156;48.738;9.228;2022-10-14T01:57:26;12.80;99.90
336;DHT22;156;48.738;9.228;2022-10-14T02:03:03;13.00;99.90
336;DHT22;156;48.738;9.228;2022-10-14T02:05:47;12.80;99.90
336;DHT22;156;48.738;9.228;2022-10-14T02:08:32;14.10;99.90
336;DHT22;156;48.738;9.228;2022-10-14T02:11:20;12.90;99.90
336;DHT22;156;48.738;9.228;2022-10-14T02:17:08;12.70;99.90
336;DHT22;156;48.738;9.228;2022-10-14T02:19:51;12.90;99.90
336;DHT22;156;48.738;9.228;2022-10-14T02:22:39;13.00;99.90
336;DHT22;156;48.738;9.228;2022-10-14T02:25:28;12.70;99.90
336;DHT22;156;48.738;9.228;2022-10-14T02:28:33;12.70;99.90
336;DHT22;156;48.738;9.228;2022-10-14T02:31:16;13.00;99.90
336;DHT22;156;48.738;9.228;2022-10-14T02:34:20;13.60;99.90
336;DHT22;156;48.738;9.228;2022-10-14T02:37:16;13.40;99.90
336;DHT22;156;48.738;9.228;2022-10-14T02:40:02;14.00;99.90
336;DHT22;156;48.738;9.228;2022-10-14T02:42:52;13.20;99.90
336;DHT22;156;48.738;9.228;2022-10-14T02:46:08;12.70;99.90
336;DHT22;156;48.738;9.228;2022-10-14T02:48:39;12.70;99.90
336;DHT22;156;48.738;9.228;2022-10-14T02:54:52;12.90;99.90
336;DHT22;156;48.738;9.228;2022-10-14T02:57:57;12.80;99.90
336;DHT22;156;48.738;9.228;2022-10-14T03:00:29;13.20;99.90
336;DHT22;156;48.738;9.228;2022-10-14T03:03:25;12.90;99.90
336;DHT22;156;48.738;9.228;2022-10-14T03:06:15;12.90;99.90
336;DHT22;156;48.738;9.228;2022-10-14T03:08:51;13.10;99.90
336;DHT22;156;48.738;9.228;2022-10-14T03:11:21;13.30;99.90
336;DHT22;156;48.738;9.228;2022-10-14T03:13:59;12.90;99.90
336;DHT22;156;48.738;9.228;2022-10-14T03:16:50;12.70;99.90
336;DHT22;156;48.738;9.228;2022-10-14T03:19:21;12.80;99.90
336;DHT22;156;48.738;9.228;2022-10-14T03:22:15;12.90;99.90
336;DHT22;156;48.738;9.228;2022-10-14T03:24:52;12.70;99.90
336;DHT22;156;48.738;9.228;2022-10-14T03:27:40;14.20;99.90
336;DHT22;156;48.738;9.228;2022-10-14T03:30:32;12.90;99.90
336;DHT22;156;48.738;9.228;2022-10-14T03:39:10;13.40;99.90
336;DHT22;156;48.738;9.228;2022-10-14T03:41:53;13.00;99.90
336;DHT22;156;48.738;9.228;2022-10-14T03:44:35;13.50;99.90
336;DHT22;156;48.738;9.228;2022-10-14T03:47:36;13.00;99.90
336;DHT22;156;48.738;9.228;2022-10-14T03:50:22;13.70;99.90
336;DHT22;156;48.738;9.228;2022-10-14T03:53:18;12.90;99.90
336;DHT22;156;48.738;9.228;2022-10-14T03:55:55;13.10;99.90
336;DHT22;156;48.738;9.228;2022-10-14T03:58:28;13.20;99.90
336;DHT22;156;48.738;9.228;2022-10-14T04:01:17;12.90;99.90
336;DHT22;156;48.738;9.228;2022-10-14T04:04:09;12.90;99.90
336;DHT22;156;48.738;9.228;2022-10-14T04:06:55;12.90;99.90
336;DHT22;156;48.738;9.228;2022-10-14T04:09:28;13.10;99.90
336;DHT22;156;48.738;9.228;2022-10-14T04:12:14;12.90;99.90
336;DHT22;156;48.738;9.228;2022-10-14T04:18:08;13.00;99.90
336;DHT22;156;48.738;9.228;2022-10-14T04:20:46;13.00;99.90
336;DHT22;156;48.738;9.228;2022-10-14T04:23:58;12.90;99.90
336;DHT22;156;48.738;9.228;2022-10-14T04:26:39;13.00;99.90
336;DHT22;156;48.738;9.228;2022-10-14T04:29:16;12.80;99.90
336;DHT22;156;48.738;9.228;2022-10-14T04:31:55;12.70;99.90
336;DHT22;156;48.738;9.228;2022-10-14T04:34:26;12.70;99.90
336;DHT22;156;48.738;9.228;2022-10-14T04:37:02;13.00;99.90
336;DHT22;156;48.738;9.228;2022-10-14T04:39:43;12.70;99.90
336;DHT22;156;48.738;9.228;2022-10-14T04:42:11;12.70;99.90
336;DHT22;156;48.738;9.228;2022-10-14T04:47:31;12.70;99.90
336;DHT22;156;48.738;9.228;2022-10-14T04:50:26;12.80;99.90
336;DHT22;156;48.738;9.228;2022-10-14T04:53:12;12.70;99.90
336;DHT22;156;48.738;9.228;2022-10-14T04:56:08;12.70;99.90
336;DHT22;156;48.738;9.228;2022-10-14T04:58:37;12.90;99.90
336;DHT22;156;48.738;9.228;2022-10-14T05:03:57;12.70;99.90
336;DHT22;156;48.738;9.228;2022-10-14T05:06:37;13.50;99.90
336;DHT22;156;48.738;9.228;2022-10-14T05:09:11;12.70;99.90
336;DHT22;156;48.738;9.228;2022-10-14T05:11:40;13.40;99.90
336;DHT22;156;48.738;9.228;2022-10-14T05:14:15;12.80;99.90
336;DHT22;156;48.738;9.228;2022-10-14T05:17:37;12.60;99.90
336;DHT22;156;48.738;9.228;2022-10-14T05:20:26;12.70;99.90
336;DHT22;156;48.738;9.228;2022-10-14T05:22:55;13.50;99.90
336;DHT22;156;48.738;9.228;2022-10-14T05:25:29;12.80;99.90
336;DHT22;156;48.738;9.228;2022-10-14T05:27:59;12.60;99.90
336;DHT22;156;48.738;9.228;2022-10-14T05:33:43;12.80;99.90
336;DHT22;156;48.738;9.228;2022-10-14T05:39:20;13.10;99.90
336;DHT22;156;48.738;9.228;2022-10-14T05:42:25;12.70;99.90
336;DHT22;156;48.738;9.228;2022-10-14T05:45:08;14.40;99.90
336;DHT22;156;48.738;9.228;2022-10-14T05:47:59;12.80;99.90
336;DHT22;156;48.738;9.228;2022-10-14T05:50:37;12.50;99.90
336;DHT22;156;48.738;9.228;2022-10-14T05:56:06;12.70;99.90
336;DHT22;156;48.738;9.228;2022-10-14T05:58:48;12.90;99.90
336;DHT22;156;48.738;9.228;2022-10-14T06:01:20;12.80;99.90
336;DHT22;156;48.738;9.228;2022-10-14T06:04:05;12.80;99.90
336;DHT22;156;48.738;9.228;2022-10-14T06:06:46;12.70;99.90
336;DHT22;156;48.738;9.228;2022-10-14T06:09:27;12.80;99.90
336;DHT22;156;48.738;9.228;2022-10-14T06:15:33;12.80;99.90
336;DHT22;156;48.738;9.228;2022-10-14T06:18:03;12.80;99.90
336;DHT22;156;48.738;9.228;2022-10-14T06:20:36;13.00;99.90
336;DHT22;156;48.738;9.228;2022-10-14T06:23:21;13.00;99.90
336;DHT22;156;48.738;9.228;2022-10-14T06:25:48;13.10;99.90
336;DHT22;156;48.738;9.228;2022-10-14T06:28:26;12.90;99.90
336;DHT22;156;48.738;9.228;2022-10-14T06:31:00;13.00;99.90
336;DHT22;156;48.738;9.228;2022-10-14T06:33:33;12.90;99.90
336;DHT22;156;48.738;9.228;2022-10-14T06:36:10;13.00;99.90
336;DHT22;156;48.738;9.228;2022-10-14T06:38:59;14.50;99.90
336;DHT22;156;48.738;9.228;2022-10-14T06:42:01;12.90;99.90
336;DHT22;156;48.738;9.228;2022-10-14T06:45:28;13.00;99.90
336;DHT22;156;48.738;9.228;2022-10-14T06:47:58;12.40;99.90
336;DHT22;156;48.738;9.228;2022-10-14T06:50:39;13.60;99.90
336;DHT22;156;48.738;9.228;2022-10-14T06:53:36;12.50;99.90
336;DHT22;156;48.738;9.228;2022-10-14T06:56:05;13.20;99.90
336;DHT22;156;48.738;9.228;2022-10-14T06:59:00;13.10;99.90
336;DHT22;156;48.738;9.228;2022-10-14T07:01:38;13.10;99.90
336;DHT22;156;48.738;9.228;2022-10-14T07:04:39;13.20;99.90
336;DHT22;156;48.738;9.228;2022-10-14T07:14:43;13.30;99.90
336;DHT22;156;48.738;9.228;2022-10-14T07:17:39;13.20;99.90
336;DHT22;156;48.738;9.228;2022-10-14T08:37:52;14.70;99.90
336;DHT22;156;48.738;9.228;2022-10-14T08:44:18;14.50;99.90
336;DHT22;156;48.738;9.228;2022-10-14T08:47:50;15.10;99.90
336;DHT22;156;48.738;9.228;2022-10-14T08:50:50;14.80;99.90
336;DHT22;156;48.738;9.228;2022-10-14T08:53:59;14.80;99.90
336;DHT22;156;48.738;9.228;2022-10-14T08:58:15;14.80;99.90
336;DHT22;156;48.738;9.228;2022-10-14T09:04:06;13.80;99.90
336;DHT22;156;48.738;9.228;2022-10-14T09:14:12;15.20;99.90
336;DHT22;156;48.738;9.228;2022-10-14T09:28:26;16.00;99.90
336;DHT22;156;48.738;9.228;2022-10-14T09:31:40;15.80;99.90
336;DHT22;156;48.738;9.228;2022-10-14T09:38:08;16.00;99.90
336;DHT22;156;48.738;9.228;2022-10-14T09:41:05;16.30;99.90
336;DHT22;156;48.738;9.228;2022-10-14T09:51:38;16.10;99.90
336;DHT22;156;48.738;9.228;2022-10-14T10:01:04;16.00;99.90
336;DHT22;156;48.738;9.228;2022-10-14T10:03:57;16.20;99.90
336;DHT22;156;48.738;9.228;2022-10-14T10:10:24;16.60;99.90
336;DHT22;156;48.738;9.228;2022-10-14T10:13:36;16.70;99.90
336;DHT22;156;48.738;9.228;2022-10-14T10:19:31;16.90;99.90
336;DHT22;156;48.738;9.228;2022-10-14T10:22:30;17.00;99.90
336;DHT22;156;48.738;9.228;2022-10-14T10:26:02;16.90;99.90
336;DHT22;156;48.738;9.228;2022-10-14T10:28:43;17.00;99.90
336;DHT22;156;48.738;9.228;2022-10-14T10:31:42;17.20;99.90
336;DHT22;156;48.738;9.228;2022-10-14T10:34:41;16.80;99.90
336;DHT22;156;48.738;9.228;2022-10-14T10:37:35;17.00;99.90
336;DHT22;156;48.738;9.228;2022-10-14T10:40:39;17.70;99.90
336;DHT22;156;48.738;9.228;2022-10-14T10:46:27;17.20;99.90
336;DHT22;156;48.738;9.228;2022-10-14T10:49:03;17.20;99.90
336;DHT22;156;48.738;9.228;2022-10-14T10:51:39;17.00;99.90
336;DHT22;156;48.738;9.228;2022-10-14T10:54:17;17.00;99.90
336;DHT22;156;48.738;9.228;2022-10-14T10:56:51;17.00;99.90
336;DHT22;156;48.738;9.228;2022-10-14T10:59:38;17.00;99.90
336;DHT22;156;48.738;9.228;2022-10-14T11:05:17;16.90;99.90
336;DHT22;156;48.738;9.228;2022-10-14T11:07:52;17.00;99.90
336;DHT22;156;48.738;9.228;2022-10-14T11:10:47;16.90;99.90
336;DHT22;156;48.738;9.228;2022-10-14T11:13:40;16.90;99.90
336;DHT22;156;48.738;9.228;2022-10-14T11:16:14;16.80;99.90
336;DHT22;156;48.738;9.228;2022-10-14T11:18:48;16.70;99.90
336;DHT22;156;48.738;9.228;2022-10-14T11:21:24;16.50;96.00
336;DHT22;156;48.738;9.228;2022-10-14T11:24:00;16.40;99.90
336;DHT22;156;48.738;9.228;2022-10-14T11:26:50;16.30;99.90
336;DHT22;156;48.738;9.228;2022-10-14T11:29:48;15.90;99.90
336;DHT22;156;48.738;9.228;2022-10-14T11:32:22;15.90;99.90
336;DHT22;156;48.738;9.228;2022-10-14T11:35:01;15.80;99.90
336;DHT22;156;48.738;9.228;2022-10-14T11:37:39;15.70;99.90
336;DHT22;156;48.738;9.228;2022-10-14T11:40:17;15.90;99.90
336;DHT22;156;48.738;9.228;2022-10-14T11:43:24;15.90;99.90
336;DHT22;156;48.738;9.228;2022-10-14T11:48:09;16.00;99.90
336;DHT22;156;48.738;9.228;2022-10-14T11:50:33;16.50;99.90
336;DHT22;156;48.738;9.228;2022-10-14T12:27:45;17.10;99.90
336;DHT22;156;48.738;9.228;2022-10-14T12:30:39;17.10;99.90
336;DHT22;156;48.738;9.228;2022-10-14T12:33:26;17.00;99.90
336;DHT22;156;48.738;9.228;2022-10-14T12:36:32;17.10;99.90
336;DHT22;156;48.738;9.228;2022-10-14T12:39:42;17.00;99.90
336;DHT22;156;48.738;9.228;2022-10-14T12:48:56;17.00;99.90
336;DHT22;156;48.738;9.228;2022-10-14T12:51:58;17.10;99.90
336;DHT22;156;48.738;9.228;2022-10-14T12:57:27;17.10;99.90
336;DHT22;156;48.738;9.228;2022-10-14T13:00:05;16.80;99.90
336;DHT22;156;48.738;9.228;2022-10-14T13:02:43;17.00;99.90
336;DHT22;156;48.738;9.228;2022-10-14T13:05:28;16.90;99.90
336;DHT22;156;48.738;9.228;2022-10-14T13:08:10;16.90;99.90
336;DHT22;156;48.738;9.228;2022-10-14T13:10:44;17.00;99.90
336;DHT22;156;48.738;9.228;2022-10-14T13:19:41;16.90;99.90
336;DHT22;156;48.738;9.228;2022-10-14T13:22:40;16.90;99.90
336;DHT22;156;48.738;9.228;2022-10-14T13:25:19;17.00;99.90
336;DHT22;156;48.738;9.228;2022-10-14T13:28:07;16.90;99.90
336;DHT22;156;48.738;9.228;2022-10-14T13:30:50;16.90;99.90
336;DHT22;156;48.738;9.228;2022-10-14T13:33:24;16.70;99.90
336;DHT22;156;48.738;9.228;2022-10-14T13:36:01;16.70;99.90
336;DHT22;156;48.738;9.228;2022-10-14T13:38:32;16.70;99.90
336;DHT22;156;48.738;9.228;2022-10-14T13:41:01;16.70;99.90
336;DHT22;156;48.738;9.228;2022-10-14T13:43:34;16.80;99.90
336;DHT22;156;48.738;9.228;2022-10-14T13:46:06;16.70;99.90
336;DHT22;156;48.738;9.228;2022-10-14T13:48:37;16.60;99.90
336;DHT22;156;48.738;9.228;2022-10-14T13:51:24;16.60;99.90
336;DHT22;156;48.738;9.228;2022-10-14T13:53:59;16.60;99.90
336;DHT22;156;48.738;9.228;2022-10-14T13:56:34;16.60;99.90
336;DHT22;156;48.738;9.228;2022-10-14T13:59:00;16.70;99.90
336;DHT22;156;48.738;9.228;2022-10-14T14:01:30;16.60;99.90
336;DHT22;156;48.738;9.228;2022-10-14T14:03:58;16.60;99.90
336;DHT22;156;48.738;9.228;2022-10-14T14:06:26;16.60;99.90
336;DHT22;156;48.738;9.228;2022-10-14T14:08:57;16.60;99.90
336;DHT22;156;48.738;9.228;2022-10-14T14:11:26;16.60;99.90
336;DHT22;156;48.738;9.228;2022-10-14T14:14:15;16.70;99.90
336;DHT22;156;48.738;9.228;2022-10-14T14:16:54;16.60;99.90
336;DHT22;156;48.738;9.228;2022-10-14T14:19:25;16.40;99.90
336;DHT22;156;48.738;9.228;2022-10-14T14:22:05;16.30;99.90
336;DHT22;156;48.738;9.228;2022-10-14T14:24:33;16.30;99.90
336;DHT22;156;48.738;9.228;2022-10-14T14:27:01;16.30;99.90
336;DHT22;156;48.738;9.228;2022-10-14T14:29:30;16.30;99.90
336;DHT22;156;48.738;9.228;2022-10-14T14:31:59;16.30;99.90
336;DHT22;156;48.738;9.228;2022-10-14T14:34:27;16.40;99.90
336;DHT22;156;48.738;9.228;2022-10-14T14:36:56;16.40;99.90
336;DHT22;156;48.738;9.228;2022-10-14T14:39:28;16.40;99.90
336;DHT22;156;48.738;9.228;2022-10-14T14:41:57;16.30;99.90
336;DHT22;156;48.738;9.228;2022-10-14T14:44:26;16.40;99.90
336;DHT22;156;48.738;9.228;2022-10-14T14:46:57;16.20;99.90
336;DHT22;156;48.738;9.228;2022-10-14T14:49:27;16.30;99.90
336;DHT22;156;48.738;9.228;2022-10-14T14:51:55;16.20;99.90
336;DHT22;156;48.738;9.228;2022-10-14T14:54:22;16.20;99.90
336;DHT22;156;48.738;9.228;2022-10-14T14:56:53;16.20;99.90
336;DHT22;156;48.738;9.228;2022-10-14T14:59:26;16.20;99.90
336;DHT22;156;48.738;9.228;2022-10-14T15:01:55;16.20;99.90
336;DHT22;156;48.738;9.228;2022-10-14T15:04:24;16.10;99.90
336;DHT22;156;48.738;9.228;2022-10-14T15:06:57;16.10;99.90
336;DHT22;156;48.738;9.228;2022-10-14T15:09:32;16.00;99.90
336;DHT22;156;48.738;9.228;2022-10-14T15:12:01;16.00;99.90
336;DHT22;156;48.738;9.228;2022-10-14T15:14:32;16.00;99.90
336;DHT22;156;48.738;9.228;2022-10-14T15:16:59;16.00;99.90
336;DHT22;156;48.738;9.228;2022-10-14T15:19:33;16.00;99.90
336;DHT22;156;48.738;9.228;2022-10-14T15:22:20;16.00;99.90
336;DHT22;156;48.738;9.228;2022-10-14T15:25:06;15.90;99.90
336;DHT22;156;48.738;9.228;2022-10-14T15:27:50;15.90;99.90
336;DHT22;156;48.738;9.228;2022-10-14T15:30:48;15.80;99.90
336;DHT22;156;48.738;9.228;2022-10-14T15:33:19;15.80;99.90
336;DHT22;156;48.738;9.228;2022-10-14T15:35:53;15.80;99.90
336;DHT22;156;48.738;9.228;2022-10-14T15:38:21;15.80;99.90
336;DHT22;156;48.738;9.228;2022-10-14T15:40:48;15.70;99.90
336;DHT22;156;48.738;9.228;2022-10-14T15:43:17;15.70;99.90
336;DHT22;156;48.738;9.228;2022-10-14T15:45:48;15.60;99.90
336;DHT22;156;48.738;9.228;2022-10-14T15:48:37;15.50;99.90
336;DHT22;156;48.738;9.228;2022-10-14T15:51:05;15.50;99.90
336;DHT22;156;48.738;9.228;2022-10-14T15:53:34;15.60;99.90
336;DHT22;156;48.738;9.228;2022-10-14T15:56:01;15.50;99.90
336;DHT22;156;48.738;9.228;2022-10-14T15:58:28;15.50;99.90
336;DHT22;156;48.738;9.228;2022-10-14T16:01:00;15.40;99.90
336;DHT22;156;48.738;9.228;2022-10-14T16:03:28;15.40;99.90
336;DHT22;156;48.738;9.228;2022-10-14T16:05:56;15.40;99.90
336;DHT22;156;48.738;9.228;2022-10-14T16:08:23;15.30;99.90
336;DHT22;156;48.738;9.228;2022-10-14T16:10:50;15.30;99.90
336;DHT22;156;48.738;9.228;2022-10-14T16:13:18;15.20;99.90
336;DHT22;156;48.738;9.228;2022-10-14T16:15:46;15.20;99.90
336;DHT22;156;48.738;9.228;2022-10-14T16:18:15;15.20;99.90
336;DHT22;156;48.738;9.228;2022-10-14T16:20:42;15.20;99.90
336;DHT22;156;48.738;9.228;2022-10-14T16:23:13;15.10;99.90
336;DHT22;156;48.738;9.228;2022-10-14T16:25:43;15.10;99.90
336;DHT22;156;48.738;9.228;2022-10-14T16:28:11;14.90;99.90
336;DHT22;156;48.738;9.228;2022-10-14T16:30:39;14.90;99.90
336;DHT22;156;48.738;9.228;2022-10-14T16:33:09;14.90;99.90
336;DHT22;156;48.738;9.228;2022-10-14T16:35:37;14.90;99.90
336;DHT22;156;48.738;9.228;2022-10-14T16:38:04;14.90;99.90
336;DHT22;156;48.738;9.228;2022-10-14T16:40:31;14.90;99.90
336;DHT22;156;48.738;9.228;2022-10-14T16:42:58;14.90;99.90
336;DHT22;156;48.738;9.228;2022-10-14T16:45:24;14.90;99.90
336;DHT22;156;48.738;9.228;2022-10-14T16:47:52;14.80;99.90
336;DHT22;156;48.738;9.228;2022-10-14T16:50:19;14.90;99.90
336;DHT22;156;48.738;9.228;2022-10-14T16:52:48;14.90;99.90
336;DHT22;156;48.738;9.228;2022-10-14T16:55:32;14.90;99.90
336;DHT22;156;48.738;9.228;2022-10-14T16:57:59;14.90;99.90
336;DHT22;156;48.738;9.228;2022-10-14T17:00:26;14.90;99.90
336;DHT22;156;48.738;9.228;2022-10-14T17:02:53;14.90;99.90
336;DHT22;156;48.738;9.228;2022-10-14T17:05:22;14.90;99.90
336;DHT22;156;48.738;9.228;2022-10-14T17:07:51;14.90;99.90
336;DHT22;156;48.738;9.228;2022-10-14T17:10:18;14.80;99.90
336;DHT22;156;48.738;9.228;2022-10-14T17:12:45;14.80;99.90
336;DHT22;156;48.738;9.228;2022-10-14T17:15:12;14.80;99.90
336;DHT22;156;48.738;9.228;2022-10-14T17:17:39;14.80;99.90
336;DHT22;156;48.738;9.228;2022-10-14T17:20:07;14.80;99.90
336;DHT22;156;48.738;9.228;2022-10-14T17:22:34;14.80;99.90
336;DHT22;156;48.738;9.228;2022-10-14T17:25:03;14.80;99.90
336;DHT22;156;48.738;9.228;2022-10-14T17:27:32;14.80;99.90
336;DHT22;156;48.738;9.228;2022-10-14T17:29:59;14.90;99.90
336;DHT22;156;48.738;9.228;2022-10-14T17:32:26;14.80;99.90
336;DHT22;156;48.738;9.228;2022-10-14T17:34:53;14.80;99.90
336;DHT22;156;48.738;9.228;2022-10-14T17:37:20;14.90;99.90
336;DHT22;156;48.738;9.228;2022-10-14T17:39:47;14.90;99.90
336;DHT22;156;48.738;9.228;2022-10-14T17:42:16;14.90;99.90
336;DHT22;156;48.738;9.228;2022-10-14T17:44:42;15.00;99.90
336;DHT22;156;48.738;9.228;2022-10-14T17:47:09;15.00;99.90
336;DHT22;156;48.738;9.228;2022-10-14T17:49:36;15.00;99.90
336;DHT22;156;48.738;9.228;2022-10-14T17:52:09;15.00;99.90
336;DHT22;156;48.738;9.228;2022-10-14T17:54:37;15.00;99.90
336;DHT22;156;48.738;9.228;2022-10-14T17:57:03;15.00;99.90
336;DHT22;156;48.738;9.228;2022-10-14T17:59:32;15.00;99.90
336;DHT22;156;48.738;9.228;2022-10-14T18:01:59;14.90;99.90
336;DHT22;156;48.738;9.228;2022-10-14T18:04:26;14.90;99.90
336;DHT22;156;48.738;9.228;2022-10-14T18:06:53;15.00;99.90
336;DHT22;156;48.738;9.228;2022-10-14T18:09:19;15.00;99.90
336;DHT22;156;48.738;9.228;2022-10-14T18:11:46;15.00;99.90
336;DHT22;156;48.738;9.228;2022-10-14T18:14:15;14.90;99.90
336;DHT22;156;48.738;9.228;2022-10-14T18:16:43;14.90;99.90
336;DHT22;156;48.738;9.228;2022-10-14T18:19:11;14.90;99.90
336;DHT22;156;48.738;9.228;2022-10-14T18:21:41;14.90;99.90
336;DHT22;156;48.738;9.228;2022-10-14T18:24:09;14.90;99.90
336;DHT22;156;48.738;9.228;2022-10-14T18:26:36;14.80;99.90
336;DHT22;156;48.738;9.228;2022-10-14T18:29:04;14.80;99.90
336;DHT22;156;48.738;9.228;2022-10-14T18:31:31;14.80;99.90
336;DHT22;156;48.738;9.228;2022-10-14T18:34:00;14.70;99.90
336;DHT22;156;48.738;9.228;2022-10-14T18:36:30;14.70;99.90
336;DHT22;156;48.738;9.228;2022-10-14T18:38:59;14.60;99.90
336;DHT22;156;48.738;9.228;2022-10-14T18:41:27;14.40;99.90
336;DHT22;156;48.738;9.228;2022-10-14T18:43:54;14.40;99.90
336;DHT22;156;48.738;9.228;2022-10-14T18:46:24;14.30;99.90
336;DHT22;156;48.738;9.228;2022-10-14T18:48:54;14.20;99.90
336;DHT22;156;48.738;9.228;2022-10-14T18:51:24;14.10;99.90
336;DHT22;156;48.738;9.228;2022-10-14T18:53:53;14.10;99.90
336;DHT22;156;48.738;9.228;2022-10-14T18:56:24;14.00;99.90
336;DHT22;156;48.738;9.228;2022-10-14T18:58:53;13.90;99.90
336;DHT22;156;48.738;9.228;2022-10-14T19:01:21;13.80;99.90
336;DHT22;156;48.738;9.228;2022-10-14T19:03:48;13.90;99.90
336;DHT22;156;48.738;9.228;2022-10-14T19:06:16;13.80;99.90
336;DHT22;156;48.738;9.228;2022-10-14T19:08:46;13.80;99.90
336;DHT22;156;48.738;9.228;2022-10-14T19:11:15;13.70;99.90
336;DHT22;156;48.738;9.228;2022-10-14T19:13:45;13.70;99.90
336;DHT22;156;48.738;9.228;2022-10-14T19:16:15;13.70;99.90
336;DHT22;156;48.738;9.228;2022-10-14T19:18:42;13.60;99.90
336;DHT22;156;48.738;9.228;2022-10-14T19:21:11;13.60;99.90
336;DHT22;156;48.738;9.228;2022-10-14T19:23:40;13.60;99.90
336;DHT22;156;48.738;9.228;2022-10-14T19:26:10;13.60;99.90
336;DHT22;156;48.738;9.228;2022-10-14T19:28:37;13.60;99.90
336;DHT22;156;48.738;9.228;2022-10-14T19:31:05;13.50;99.90
336;DHT22;156;48.738;9.228;2022-10-14T19:33:34;13.50;99.90
336;DHT22;156;48.738;9.228;2022-10-14T19:36:01;13.50;99.90
336;DHT22;156;48.738;9.228;2022-10-14T19:38:28;13.50;99.90
336;DHT22;156;48.738;9.228;2022-10-14T19:40:57;13.40;99.90
336;DHT22;156;48.738;9.228;2022-10-14T19:43:26;13.40;99.90
336;DHT22;156;48.738;9.228;2022-10-14T19:45:53;13.40;99.90
336;DHT22;156;48.738;9.228;2022-10-14T19:48:22;13.40;99.90
336;DHT22;156;48.738;9.228;2022-10-14T19:50:49;13.40;99.90
336;DHT22;156;48.738;9.228;2022-10-14T19:53:17;13.50;99.90
336;DHT22;156;48.738;9.228;2022-10-14T19:55:47;13.40;99.90
336;DHT22;156;48.738;9.228;2022-10-14T19:58:16;13.60;99.90
336;DHT22;156;48.738;9.228;2022-10-14T20:00:48;13.60;99.90
336;DHT22;156;48.738;9.228;2022-10-14T20:03:15;13.50;99.90
336;DHT22;156;48.738;9.228;2022-10-14T20:05:42;13.40;99.90
336;DHT22;156;48.738;9.228;2022-10-14T20:08:09;13.40;99.90
336;DHT22;156;48.738;9.228;2022-10-14T20:10:36;13.40;99.90
336;DHT22;156;48.738;9.228;2022-10-14T20:13:03;13.40;99.90
336;DHT22;156;48.738;9.228;2022-10-14T20:15:30;13.40;99.90
336;DHT22;156;48.738;9.228;2022-10-14T20:17:58;13.40;99.90
336;DHT22;156;48.738;9.228;2022-10-14T20:20:25;13.40;99.90
336;DHT22;156;48.738;9.228;2022-10-14T20:22:52;13.40;99.90
336;DHT22;156;48.738;9.228;2022-10-14T20:25:19;13.40;99.90
336;DHT22;156;48.738;9.228;2022-10-14T20:27:45;13.40;99.90
336;DHT22;156;48.738;9.228;2022-10-14T20:30:12;13.40;99.90
336;DHT22;156;48.738;9.228;2022-10-14T20:32:39;13.30;99.90
336;DHT22;156;48.738;9.228;2022-10-14T20:35:08;13.30;99.90
336;DHT22;156;48.738;9.228;2022-10-14T20:37:35;13.30;99.90
336;DHT22;156;48.738;9.228;2022-10-14T20:40:04;13.30;99.90
336;DHT22;156;48.738;9.228;2022-10-14T20:42:32;13.30;99.90
336;DHT22;156;48.738;9.228;2022-10-14T20:44:59;13.30;99.90
336;DHT22;156;48.738;9.228;2022-10-14T20:47:26;13.30;99.90
336;DHT22;156;48.738;9.228;2022-10-14T20:49:53;13.30;99.90
336;DHT22;156;48.738;9.228;2022-10-14T20:52:21;13.30;99.90
336;DHT22;156;48.738;9.228;2022-10-14T20:54:48;13.30;99.90
336;DHT22;156;48.738;9.228;2022-10-14T20:57:15;13.30;99.90
336;DHT22;156;48.738;9.228;2022-10-14T20:59:42;13.30;99.90
336;DHT22;156;48.738;9.228;2022-10-14T21:02:14;13.30;99.90
336;DHT22;156;48.738;9.228;2022-10-14T21:04:41;13.30;99.90
336;DHT22;156;48.738;9.228;2022-10-14T21:07:08;13.30;99.90
336;DHT22;156;48.738;9.228;2022-10-14T21:09:36;13.30;99.90
336;DHT22;156;48.738;9.228;2022-10-14T21:12:03;13.30;99.90
336;DHT22;156;48.738;9.228;2022-10-14T21:14:30;13.30;99.90
336;DHT22;156;48.738;9.228;2022-10-14T21:16:57;13.30;99.90
336;DHT22;156;48.738;9.228;2022-10-14T21:19:24;13.30;99.90
336;DHT22;156;48.738;9.228;2022-10-14T21:21:51;13.30;99.90
336;DHT22;156;48.738;9.228;2022-10-14T21:24:18;13.30;99.90
336;DHT22;156;48.738;9.228;2022-10-14T21:26:48;13.30;99.90
336;DHT22;156;48.738;9.228;2022-10-14T21:29:17;13.30;99.90
336;DHT22;156;48.738;9.228;2022-10-14T21:31:44;13.30;99.90
336;DHT22;156;48.738;9.228;2022-10-14T21:34:12;13.40;99.90
336;DHT22;156;48.738;9.228;2022-10-14T21:36:39;13.40;99.90
336;DHT22;156;48.738;9.228;2022-10-14T21:39:07;13.40;99.90
336;DHT22;156;48.738;9.228;2022-10-14T21:41:34;13.40;99.90
336;DHT22;156;48.738;9.228;2022-10-14T21:44:03;13.30;99.90
336;DHT22;156;48.738;9.228;2022-10-14T21:46:31;13.40;99.90
336;DHT22;156;48.738;9.228;2022-10-14T21:48:58;13.40;99.90